createdAt,value
2023-03-10T00:01:55.122Z,12.77
2023-03-10T00:04:57.730Z,10.20
2023-03-10T00:08:00.167Z,11.82
2023-03-10T00:11:02.522Z,11.90
2023-03-10T00:14:04.893Z,12.38
2023-03-10T00:17:07.531Z,9.93
2023-03-10T00:20:12.395Z,9.65
2023-03-10T00:23:14.753Z,8.77
2023-03-10T00:26:18.360Z,8.95
2023-03-10T00:29:22.159Z,9.77
2023-03-10T00:35:26.893Z,10.13
2023-03-10T00:38:29.581Z,10.82
2023-03-10T00:41:34.181Z,9.57
2023-03-10T00:44:36.549Z,10.05
2023-03-10T00:47:38.876Z,9.25
2023-03-10T00:50:41.183Z,13.15
2023-03-10T00:53:44.072Z,12.95
2023-03-10T00:56:46.645Z,9.07
2023-03-10T00:59:52.095Z,13.18
2023-03-10T01:02:54.957Z,14.55
2023-03-10T01:05:58.062Z,9.63
2023-03-10T01:09:01.106Z,8.25
2023-03-10T01:12:03.580Z,8.02
2023-03-10T01:15:06.891Z,11.48
2023-03-10T01:18:09.213Z,13.80
2023-03-10T01:21:20.842Z,17.17
2023-03-10T01:24:23.419Z,13.63
2023-03-10T01:27:25.685Z,17.38
2023-03-10T01:30:29.399Z,10.98
2023-03-10T01:33:31.820Z,11.60
2023-03-10T01:36:34.466Z,11.93
2023-03-10T01:39:37.433Z,14.07
2023-03-10T01:42:39.771Z,12.50
2023-03-10T01:45:42.019Z,12.70
2023-03-10T01:48:44.512Z,14.32
2023-03-10T01:51:51.396Z,13.48
2023-03-10T01:54:57.512Z,15.27
2023-03-10T01:58:00.597Z,16.25
2023-03-10T02:01:03.512Z,11.00
2023-03-10T02:04:09.681Z,15.95
2023-03-10T02:07:13.858Z,16.45
2023-03-10T02:10:17.109Z,20.20
2023-03-10T02:13:19.569Z,11.93
2023-03-10T02:16:24.175Z,13.88
2023-03-10T02:19:35.766Z,16.20
2023-03-10T02:22:40.561Z,15.32
2023-03-10T02:25:50.512Z,16.05
2023-03-10T02:28:53.629Z,15.07
2023-03-10T02:31:56.905Z,11.25
2023-03-10T02:34:59.450Z,11.30
2023-03-10T02:38:01.856Z,16.55
2023-03-10T02:41:20.785Z,11.48
2023-03-10T02:44:24.722Z,15.40
2023-03-10T02:47:27.128Z,16.63
2023-03-10T02:50:34.988Z,18.70
2023-03-10T02:53:37.508Z,16.83
2023-03-10T02:56:42.511Z,19.13
2023-03-10T02:59:46.241Z,19.60
2023-03-10T03:02:48.878Z,13.90
2023-03-10T03:05:52.069Z,17.23
2023-03-10T03:08:55.084Z,14.80
2023-03-10T03:12:00.082Z,15.55
2023-03-10T03:15:02.925Z,18.35
2023-03-10T03:18:06.162Z,17.23
2023-03-10T03:21:13.052Z,15.52
2023-03-10T03:24:16.105Z,19.90
2023-03-10T03:27:18.545Z,18.75
2023-03-10T03:30:27.185Z,25.13
2023-03-10T03:33:32.731Z,19.08
2023-03-10T03:36:35.457Z,21.30
2023-03-10T03:39:38.304Z,13.70
2023-03-10T03:42:44.551Z,18.50
2023-03-10T03:45:47.556Z,20.33
2023-03-10T03:48:50.293Z,13.57
2023-03-10T03:51:53.262Z,17.00
2023-03-10T03:54:58.852Z,17.38
2023-03-10T03:58:01.457Z,17.77
2023-03-10T04:01:03.922Z,18.58
2023-03-10T04:04:12.248Z,20.65
2023-03-10T04:07:15.350Z,16.73
2023-03-10T04:10:23.657Z,20.40
2023-03-10T04:13:26.489Z,29.75
2023-03-10T04:16:28.976Z,22.40
2023-03-10T04:19:32.271Z,26.38
2023-03-10T04:22:41.221Z,24.23
2023-03-10T04:25:44.818Z,21.42
2023-03-10T04:28:48.292Z,22.92
2023-03-10T04:32:04.913Z,22.77
2023-03-10T04:35:12.966Z,27.88
2023-03-10T04:38:16.415Z,24.13
2023-03-10T04:41:19.067Z,28.67
2023-03-10T04:44:30.941Z,26.92
2023-03-10T04:47:36.616Z,25.98
2023-03-10T04:50:39.195Z,29.30
2023-03-10T04:53:41.552Z,26.55
2023-03-10T04:56:45.143Z,36.15
2023-03-10T04:59:47.603Z,35.67
2023-03-10T05:02:50.345Z,34.30
2023-03-10T05:05:53.190Z,21.90
2023-03-10T05:08:56.589Z,28.70
2023-03-10T05:12:00.069Z,24.20
2023-03-10T05:15:07.058Z,29.45
2023-03-10T05:18:11.194Z,25.70
2023-03-10T05:21:15.690Z,26.67
2023-03-10T05:24:20.344Z,27.35
2023-03-10T05:27:23.250Z,27.40
2023-03-10T05:33:31.642Z,27.88
2023-03-10T05:36:36.120Z,32.33
2023-03-10T05:39:41.331Z,32.28
2023-03-10T05:42:48.829Z,38.22
2023-03-10T05:45:58.370Z,34.85
2023-03-10T05:49:02.400Z,29.50
2023-03-10T05:52:05.555Z,25.80
2023-03-10T05:55:12.223Z,25.73
2023-03-10T05:58:14.749Z,30.73
2023-03-10T06:01:17.851Z,34.75
2023-03-10T06:04:20.216Z,30.60
2023-03-10T06:07:22.673Z,35.28
2023-03-10T06:10:25.037Z,42.72
2023-03-10T06:13:27.657Z,68.30
2023-03-10T06:16:30.173Z,39.83
2023-03-10T06:19:32.513Z,57.80
2023-03-10T06:22:35.010Z,44.22
2023-03-10T06:25:38.015Z,45.17
2023-03-10T06:28:41.942Z,28.20
2023-03-10T06:34:46.684Z,34.90
2023-03-10T06:37:49.041Z,43.70
2023-03-10T06:40:51.341Z,36.13
2023-03-10T06:43:53.682Z,46.25
2023-03-10T06:46:56.100Z,40.15
2023-03-10T06:49:58.649Z,35.22
2023-03-10T06:53:00.977Z,36.53
2023-03-10T06:56:04.913Z,36.22
2023-03-10T06:59:07.457Z,46.72
2023-03-10T07:02:12.497Z,99.72
2023-03-10T07:05:15.265Z,58.92
2023-03-10T07:08:17.602Z,47.90
2023-03-10T07:11:19.945Z,42.83
2023-03-10T07:14:22.420Z,53.92
2023-03-10T07:17:25.116Z,47.38
2023-03-10T07:20:27.519Z,42.13
2023-03-10T07:23:29.943Z,36.63
2023-03-10T07:26:32.294Z,37.45
2023-03-10T07:29:34.891Z,39.60
2023-03-10T07:32:37.368Z,122.15
2023-03-10T07:35:40.080Z,57.90
2023-03-10T07:38:42.506Z,44.63
2023-03-10T07:41:45.079Z,48.42
2023-03-10T07:44:47.459Z,60.05
2023-03-10T07:47:51.488Z,54.08
2023-03-10T07:50:59.982Z,70.07
2023-03-10T07:54:02.369Z,52.50
2023-03-10T07:57:04.809Z,39.45
2023-03-10T08:00:07.937Z,37.60
2023-03-10T08:03:16.333Z,59.80
2023-03-10T08:06:22.022Z,65.72
2023-03-10T08:09:24.568Z,77.40
2023-03-10T08:12:27.005Z,47.13
2023-03-10T08:15:30.165Z,36.45
2023-03-10T08:18:32.953Z,39.17
2023-03-10T08:21:35.378Z,36.40
2023-03-10T08:24:39.300Z,35.08
2023-03-10T08:27:41.840Z,29.98
2023-03-10T08:31:01.222Z,34.65
2023-03-10T08:34:06.041Z,37.63
2023-03-10T08:37:08.419Z,38.65
2023-03-10T08:40:13.929Z,56.42
2023-03-10T08:43:16.364Z,61.10
2023-03-10T08:46:19.668Z,55.08
2023-03-10T08:49:22.847Z,48.65
2023-03-10T08:52:25.345Z,52.45
2023-03-10T08:55:27.685Z,46.28
2023-03-10T08:58:30.066Z,41.15
2023-03-10T09:01:34.758Z,38.00
2023-03-10T09:04:37.153Z,39.30
2023-03-10T09:07:39.648Z,74.72
2023-03-10T09:10:44.480Z,64.38
2023-03-10T09:13:48.300Z,107.80
2023-03-10T09:16:50.837Z,114.38
2023-03-10T09:19:53.307Z,81.57
2023-03-10T09:22:56.380Z,39.22
2023-03-10T09:25:58.830Z,30.13
2023-03-10T09:29:02.120Z,23.13
2023-03-10T09:32:05.743Z,24.70
2023-03-10T09:35:09.221Z,28.52
2023-03-10T09:38:13.051Z,35.10
2023-03-10T09:41:56.583Z,46.60
2023-03-10T09:45:43.163Z,29.48
2023-03-10T09:49:20.816Z,30.00
2023-03-10T09:52:30.026Z,28.27
2023-03-10T09:55:47.553Z,38.00
2023-03-10T09:59:02.311Z,71.70
2023-03-10T10:02:16.043Z,88.45
2023-03-10T10:05:26.519Z,110.22
2023-03-10T10:08:31.152Z,35.40
2023-03-10T10:11:36.955Z,53.72
2023-03-10T10:14:42.700Z,48.47
2023-03-10T10:17:58.626Z,46.95
2023-03-10T10:21:18.734Z,37.17
2023-03-10T10:24:21.789Z,59.80
2023-03-10T10:27:25.574Z,34.50
2023-03-10T10:30:37.177Z,33.83
2023-03-10T10:34:01.692Z,27.83
2023-03-10T10:40:24.266Z,26.63
2023-03-10T10:43:26.753Z,27.67
2023-03-10T10:46:30.656Z,25.52
2023-03-10T10:52:36.494Z,25.40
2023-03-10T10:55:39.103Z,31.42
2023-03-10T10:58:42.996Z,30.52
2023-03-10T11:04:50.429Z,69.00
2023-03-10T11:07:53.134Z,48.67
2023-03-10T11:11:24.659Z,56.60
2023-03-10T11:14:30.025Z,61.22
2023-03-10T11:17:38.681Z,59.92
2023-03-10T11:20:47.273Z,95.20
2023-03-10T11:24:04.490Z,33.15
2023-03-10T11:27:36.174Z,30.40
2023-03-10T11:30:39.936Z,57.78
2023-03-10T11:34:04.056Z,67.45
2023-03-10T11:37:30.129Z,36.95
2023-03-10T11:40:54.324Z,37.75
2023-03-10T11:44:02.174Z,33.58
2023-03-10T11:47:12.759Z,67.95
2023-03-10T11:50:42.545Z,52.78
2023-03-10T11:53:50.913Z,36.92
2023-03-10T11:56:53.874Z,36.72
2023-03-10T11:59:58.853Z,113.60
2023-03-10T12:03:27.747Z,94.43
2023-03-10T12:06:37.415Z,45.22
2023-03-10T12:09:50.862Z,34.65
2023-03-10T12:12:54.640Z,23.30
2023-03-10T12:16:02.183Z,93.50
2023-03-10T12:19:06.589Z,89.30
2023-03-10T12:22:38.834Z,34.28
2023-03-10T12:25:43.922Z,36.38
2023-03-10T12:28:46.279Z,35.13
2023-03-10T12:31:51.697Z,36.55
2023-03-10T12:35:23.112Z,37.75
2023-03-10T12:38:47.144Z,28.90
2023-03-10T12:41:50.655Z,27.95
2023-03-10T12:44:58.207Z,27.80
2023-03-10T12:48:22.359Z,36.10
2023-03-10T12:51:26.391Z,41.63
2023-03-10T12:57:49.649Z,88.57
2023-03-10T13:00:57.522Z,34.08
2023-03-10T13:04:00.180Z,32.13
2023-03-10T13:07:04.254Z,38.33
2023-03-10T13:13:10.238Z,42.97
2023-03-10T13:16:21.283Z,77.07
2023-03-10T13:19:25.870Z,36.60
2023-03-10T13:22:28.957Z,60.38
2023-03-10T13:25:33.948Z,129.00
2023-03-10T13:28:36.552Z,349.40
2023-03-10T13:31:39.031Z,103.75
2023-03-10T13:34:41.379Z,24.52
2023-03-10T13:37:43.724Z,25.60
2023-03-10T13:40:52.107Z,53.75
2023-03-10T13:43:55.558Z,49.28
2023-03-10T13:47:00.902Z,22.38
2023-03-10T13:50:03.620Z,38.45
2023-03-10T13:53:05.930Z,47.90
2023-03-10T13:56:48.691Z,52.67
2023-03-10T13:59:51.573Z,57.05
2023-03-10T14:02:54.323Z,149.27
2023-03-10T14:05:56.653Z,173.40
2023-03-10T14:09:14.092Z,52.80
2023-03-10T14:12:37.238Z,60.50
2023-03-10T14:15:39.806Z,41.00
2023-03-10T14:18:44.039Z,40.45
2023-03-10T14:22:00.295Z,27.65
2023-03-10T14:25:12.457Z,39.50
2023-03-10T14:28:18.212Z,40.22
2023-03-10T14:31:23.213Z,52.20
2023-03-10T14:34:26.479Z,56.90
2023-03-10T14:37:28.831Z,86.10
2023-03-10T14:40:32.072Z,141.40
2023-03-10T14:43:35.685Z,57.30
2023-03-10T14:46:38.433Z,70.88
2023-03-10T14:49:40.911Z,87.15
2023-03-10T14:52:43.259Z,70.43
2023-03-10T14:55:50.156Z,51.42
2023-03-10T14:58:53.783Z,45.47
2023-03-10T15:01:57.253Z,111.30
2023-03-10T15:04:59.630Z,152.85
2023-03-10T15:08:05.212Z,63.50
2023-03-10T15:11:08.406Z,48.28
2023-03-10T15:14:19.151Z,55.67
2023-03-10T15:17:22.402Z,49.95
2023-03-10T15:20:25.551Z,54.47
2023-03-10T15:23:28.723Z,97.05
2023-03-10T15:26:31.046Z,60.50
2023-03-10T15:29:33.449Z,72.68
2023-03-10T15:32:35.845Z,56.53
2023-03-10T15:35:39.091Z,76.45
2023-03-10T15:38:41.498Z,96.60
2023-03-10T15:41:44.026Z,109.18
2023-03-10T15:44:49.563Z,134.70
2023-03-10T15:47:52.028Z,108.78
2023-03-10T15:50:54.345Z,91.45
2023-03-10T15:53:56.727Z,96.65
2023-03-10T15:56:59.060Z,69.15
2023-03-10T16:00:01.638Z,78.32
2023-03-10T16:03:04.054Z,86.65
2023-03-10T16:06:06.733Z,83.00
2023-03-10T16:09:09.221Z,66.22
2023-03-10T16:12:11.766Z,76.45
2023-03-10T16:15:17.960Z,62.08
2023-03-10T16:18:20.693Z,75.72
2023-03-10T16:21:23.116Z,89.47
2023-03-10T16:24:25.610Z,99.85
2023-03-10T16:27:28.204Z,132.73
2023-03-10T16:30:30.716Z,102.68
2023-03-10T16:33:33.304Z,109.15
2023-03-10T16:36:36.891Z,106.85
2023-03-10T16:39:39.474Z,105.20
2023-03-10T16:42:45.693Z,105.75
2023-03-10T16:45:51.106Z,146.30
2023-03-10T16:48:55.085Z,115.32
2023-03-10T16:51:57.396Z,135.43
2023-03-10T16:55:01.697Z,171.55
2023-03-10T16:58:04.193Z,144.35
2023-03-10T17:01:06.819Z,96.30
2023-03-10T17:04:09.208Z,91.32
2023-03-10T17:07:11.693Z,95.80
2023-03-10T17:10:13.992Z,97.90
2023-03-10T17:13:16.339Z,91.97
2023-03-10T17:16:19.393Z,96.60
2023-03-10T17:19:30.331Z,76.25
2023-03-10T17:22:32.792Z,96.70
2023-03-10T17:25:35.729Z,132.75
2023-03-10T17:28:39.213Z,91.35
2023-03-10T17:31:43.973Z,98.13
2023-03-10T17:34:52.058Z,80.13
2023-03-10T17:37:54.515Z,71.47
2023-03-10T17:40:56.856Z,71.32
2023-03-10T17:43:59.272Z,77.70
2023-03-10T17:47:01.697Z,72.38
2023-03-10T17:50:05.143Z,81.30
2023-03-10T17:53:07.447Z,106.75
2023-03-10T17:56:10.290Z,88.07
2023-03-10T17:59:16.604Z,120.40
2023-03-10T18:02:18.975Z,88.68
2023-03-10T18:05:21.364Z,98.18
2023-03-10T18:08:23.888Z,94.70
2023-03-10T18:11:26.926Z,74.22
2023-03-10T18:14:29.343Z,49.50
2023-03-10T18:17:31.746Z,67.47
2023-03-10T18:20:36.491Z,53.40
2023-03-10T18:23:39.100Z,84.60
2023-03-10T18:26:45.415Z,74.32
2023-03-10T18:29:48.005Z,69.63
2023-03-10T18:32:50.526Z,82.05
2023-03-10T18:35:53.076Z,83.30
2023-03-10T18:38:56.310Z,94.28
2023-03-10T18:41:58.755Z,115.53
2023-03-10T18:45:01.207Z,73.00
2023-03-10T18:48:03.570Z,61.83
2023-03-10T18:51:06.375Z,55.25
2023-03-10T18:54:08.804Z,95.32
2023-03-10T18:57:11.764Z,110.95
2023-03-10T19:00:15.654Z,72.50
2023-03-10T19:03:19.237Z,91.22
2023-03-10T19:06:22.008Z,83.22
2023-03-10T19:09:24.608Z,118.97
2023-03-10T19:12:28.682Z,81.22
2023-03-10T19:15:31.128Z,82.97
2023-03-10T19:18:33.586Z,81.00
2023-03-10T19:21:37.168Z,89.07
2023-03-10T19:24:39.944Z,80.90
2023-03-10T19:27:42.534Z,72.00
2023-03-10T19:30:44.940Z,95.78
2023-03-10T19:33:47.343Z,167.32
2023-03-10T19:36:49.744Z,118.85
2023-03-10T19:39:52.114Z,83.07
2023-03-10T19:42:54.560Z,70.20
2023-03-10T19:46:07.872Z,93.28
2023-03-10T19:49:10.224Z,98.93
2023-03-10T19:52:12.684Z,123.32
2023-03-10T19:55:19.749Z,115.32
2023-03-10T19:58:23.110Z,85.25
2023-03-10T20:01:27.000Z,63.03
2023-03-10T20:07:34.499Z,72.03
2023-03-10T20:10:36.862Z,76.05
2023-03-10T20:13:39.652Z,153.20
2023-03-10T20:16:42.058Z,89.50
2023-03-10T20:19:44.573Z,112.10
2023-03-10T20:22:49.563Z,83.50
2023-03-10T20:25:51.896Z,119.53
2023-03-10T20:28:54.452Z,105.57
2023-03-10T20:31:56.824Z,113.85
2023-03-10T20:34:59.266Z,93.78
2023-03-10T20:38:02.287Z,124.85
2023-03-10T20:41:04.817Z,70.90
2023-03-10T20:44:09.697Z,104.00
2023-03-10T20:47:12.150Z,84.57
2023-03-10T20:50:16.040Z,78.65
2023-03-10T20:56:20.781Z,75.85
2023-03-10T20:59:23.387Z,77.55
2023-03-10T21:02:25.826Z,68.32
2023-03-10T21:05:29.132Z,82.45
2023-03-10T21:08:31.581Z,61.25
2023-03-10T21:11:35.235Z,119.70
2023-03-10T21:14:37.584Z,108.00
2023-03-10T21:17:39.893Z,68.97
2023-03-10T21:20:42.446Z,79.25
2023-03-10T21:23:44.824Z,86.72
2023-03-10T21:26:47.370Z,112.63
2023-03-10T21:29:49.823Z,92.93
2023-03-10T21:32:52.237Z,62.25
2023-03-10T21:35:54.586Z,98.65
2023-03-10T21:38:57.369Z,91.22
2023-03-10T21:41:59.672Z,116.28
2023-03-10T21:45:02.087Z,63.97
2023-03-10T21:48:05.083Z,86.20
2023-03-10T21:51:09.899Z,77.80
2023-03-10T21:54:12.402Z,111.70
2023-03-10T21:57:14.719Z,91.20
2023-03-10T22:00:19.466Z,84.28
2023-03-10T22:03:22.024Z,83.40
2023-03-10T22:06:24.573Z,100.53
2023-03-10T22:09:28.578Z,80.30
2023-03-10T22:12:31.012Z,107.93
2023-03-10T22:15:33.514Z,110.60
2023-03-10T22:18:35.780Z,112.53
2023-03-10T22:21:38.454Z,109.20
2023-03-10T22:24:41.744Z,85.25
2023-03-10T22:27:46.125Z,115.47
2023-03-10T22:30:48.450Z,151.05
2023-03-10T22:33:50.942Z,134.45
2023-03-10T22:36:53.645Z,80.32
2023-03-10T22:39:55.981Z,82.68
2023-03-10T22:42:58.874Z,88.05
2023-03-10T22:46:17.260Z,116.60
2023-03-10T22:49:19.714Z,87.10
2023-03-10T22:52:22.077Z,106.32
2023-03-10T22:55:25.177Z,93.45
2023-03-10T22:58:28.125Z,123.38
2023-03-10T23:01:30.996Z,102.57
2023-03-10T23:04:33.401Z,146.90
2023-03-10T23:07:35.767Z,141.00
2023-03-10T23:10:38.933Z,159.63
2023-03-10T23:13:41.899Z,145.82
2023-03-10T23:16:44.269Z,146.40
2023-03-10T23:19:51.300Z,123.18
2023-03-10T23:22:54.382Z,127.80
2023-03-10T23:25:56.965Z,133.47
2023-03-10T23:28:59.290Z,156.07
2023-03-10T23:32:01.589Z,98.35
2023-03-10T23:35:09.116Z,129.60
2023-03-10T23:38:11.599Z,118.35
2023-03-10T23:41:14.303Z,99.20
2023-03-10T23:44:16.727Z,96.20
2023-03-10T23:47:19.043Z,131.65
2023-03-10T23:50:26.871Z,127.40
2023-03-10T23:53:29.438Z,132.32
2023-03-10T23:56:31.950Z,180.80
2023-03-10T23:59:34.403Z,120.85
